Time;durP1;ratioP1;P1;durP2;ratioP2;P2;SDS_P1;SDS_P2;PMS_P1;PMS_P2;Temp;Humidity;BMP_temperature;BMP_pressure;BME280_temperature;BME280_humidity;BME280_pressure;Samples;Min_cycle;Max_cycle;Signal;HPM_P1;HPM_P2
2021/07/26 00:03:49;;;;;;;9.60;5.90;;;;;;;17.15;86.83;100791.56;10456860;28;20394;-62
2021/07/26 00:08:51;;;;;;;10.52;7.32;;;;;;;17.06;86.94;100783.44;10456552;28;20504;-62
2021/07/26 00:13:53;;;;;;;11.00;6.18;;;;;;;16.99;86.98;100779.63;10456657;28;20048;-63
2021/07/26 00:18:56;;;;;;;9.45;6.53;;;;;;;16.99;86.95;100776.97;10456486;28;20481;-62
2021/07/26 00:23:58;;;;;;;9.13;6.28;;;;;;;16.96;86.58;100773.75;10456486;28;20053;-63
2021/07/26 00:29:01;;;;;;;11.65;6.82;;;;;;;16.77;86.81;100775.28;10456260;28;20053;-62
2021/07/26 00:34:23;;;;;;;9.10;6.75;;;;;;;16.51;87.69;100766.91;10455879;28;20075;-61
2021/07/26 00:39:30;;;;;;;10.93;6.18;;;;;;;16.70;87.08;100771.47;10456101;28;20397;-63
2021/07/26 00:44:33;;;;;;;11.38;6.65;;;;;;;16.48;87.42;100767.97;10456300;28;20045;-62
2021/07/26 00:49:36;;;;;;;7.63;5.80;;;;;;;16.52;87.26;100765.91;10455979;28;20049;-61
2021/07/26 00:54:39;;;;;;;7.90;6.85;;;;;;;16.63;86.77;100762.41;10455724;28;20053;-62
2021/07/26 00:59:42;;;;;;;8.80;5.80;;;;;;;16.47;87.51;100763.63;10454469;28;20055;-61
2021/07/26 01:04:44;;;;;;;6.10;5.50;;;;;;;16.46;87.85;100764.63;10455679;28;20057;-62
2021/07/26 01:09:46;;;;;;;9.48;5.80;;;;;;;16.42;87.52;100765.00;10455467;28;20102;-62
2021/07/26 01:14:49;;;;;;;5.68;4.75;;;;;;;16.41;87.45;100764.16;10462724;28;20053;-63
2021/07/26 01:19:51;;;;;;;14.82;6.28;;;;;;;16.58;87.13;100768.06;10461969;28;20052;-63
2021/07/26 01:24:53;;;;;;;8.70;5.32;;;;;;;16.42;87.74;100771.13;10463112;28;20059;-63
2021/07/26 01:29:56;;;;;;;9.60;6.10;;;;;;;16.37;88.07;100775.13;10462949;28;20052;-61
2021/07/26 01:34:58;;;;;;;8.68;5.47;;;;;;;16.49;87.73;100782.00;10462497;28;20053;-63
2021/07/26 01:40:00;;;;;;;6.07;5.07;;;;;;;16.33;87.91;100780.66;10462607;28;20052;-62
2021/07/26 01:45:03;;;;;;;9.13;5.90;;;;;;;16.41;87.84;100779.16;10462173;28;20060;-62
2021/07/26 01:50:10;;;;;;;8.40;5.40;;;;;;;16.48;88.30;100772.44;10461883;28;20045;-62
2021/07/26 01:55:12;;;;;;;11.95;5.68;;;;;;;16.56;87.60;100775.28;10461994;28;20041;-61
2021/07/26 02:00:15;;;;;;;9.20;5.95;;;;;;;16.59;87.62;100777.66;10460623;28;20045;-62
2021/07/26 02:05:17;;;;;;;6.28;5.38;;;;;;;16.52;87.98;100784.41;10462101;28;20060;-61
2021/07/26 02:10:21;;;;;;;11.50;5.72;;;;;;;16.24;87.95;100784.06;10461415;28;20052;-63
2021/07/26 02:15:23;;;;;;;9.68;5.90;;;;;;;16.39;87.91;100789.88;10460867;28;20052;-62
2021/07/26 02:20:26;;;;;;;10.35;8.07;;;;;;;16.45;88.43;100794.66;10459993;28;20048;-61
2021/07/26 02:25:28;;;;;;;9.43;6.10;;;;;;;16.74;87.50;100801.97;10460879;28;20044;-62
2021/07/26 02:30:30;;;;;;;10.85;7.60;;;;;;;16.32;88.97;100796.63;10460851;28;20049;-62
2021/07/26 02:35:33;;;;;;;9.85;7.55;;;;;;;16.26;89.32;100800.59;10459904;28;20049;-61
2021/07/26 02:40:36;;;;;;;9.50;6.82;;;;;;;16.43;88.39;100798.41;10459900;28;20409;-62
2021/07/26 02:45:38;;;;;;;10.80;6.97;;;;;;;16.46;87.90;100803.44;10459834;28;20493;-61
2021/07/26 02:50:41;;;;;;;10.57;7.78;;;;;;;16.53;87.89;100809.88;10459808;28;20048;-62
2021/07/26 02:55:43;;;;;;;11.32;7.90;;;;;;;16.59;87.83;100800.59;10458246;28;20056;-62
2021/07/26 03:00:49;;;;;;;16.88;8.65;;;;;;;16.44;87.73;100806.19;10459731;28;20053;-62
2021/07/26 03:05:51;;;;;;;10.88;6.82;;;;;;;16.36;88.66;100800.69;10459031;28;20476;-62
2021/07/26 03:10:59;;;;;;;11.38;6.60;;;;;;;16.27;88.38;100799.66;10458950;28;20041;-62
2021/07/26 03:16:07;;;;;;;10.63;8.07;;;;;;;16.30;88.30;100802.03;10457336;28;20417;-62
2021/07/26 03:21:13;;;;;;;14.32;8.75;;;;;;;16.44;88.12;100816.78;10457472;28;20052;-62
2021/07/26 03:26:15;;;;;;;10.18;7.25;;;;;;;16.53;87.58;100816.00;10457730;28;20060;-62
2021/07/26 03:31:18;;;;;;;14.15;8.02;;;;;;;16.33;88.12;100815.00;10458292;28;20051;-62
2021/07/26 03:36:20;;;;;;;16.65;7.53;;;;;;;16.52;86.73;100824.06;10457206;28;20067;-62
2021/07/26 03:41:22;;;;;;;11.13;7.30;;;;;;;16.38;87.98;100819.06;10458079;28;20045;-62
2021/07/26 03:46:25;;;;;;;14.23;7.78;;;;;;;16.28;87.46;100835.66;10457588;28;20049;-61
2021/07/26 03:51:27;;;;;;;8.65;6.97;;;;;;;16.39;86.78;100834.81;10457712;28;20045;-61
2021/07/26 03:56:29;;;;;;;17.23;6.43;;;;;;;16.22;87.06;100828.22;10457183;28;20056;-61
2021/07/26 04:01:32;;;;;;;9.93;6.05;;;;;;;16.39;87.51;100826.03;10457830;28;20045;-62
2021/07/26 04:06:34;;;;;;;9.48;7.30;;;;;;;16.48;87.99;100836.69;10456486;28;20493;-62
2021/07/26 04:11:39;;;;;;;13.48;8.15;;;;;;;16.47;87.86;100834.16;10456681;28;20052;-62
2021/07/26 04:16:41;;;;;;;11.88;7.70;;;;;;;16.65;87.10;100840.59;10456817;28;20060;-61
2021/07/26 04:21:43;;;;;;;9.50;7.28;;;;;;;16.66;87.09;100841.41;10456340;28;20041;-61
2021/07/26 04:26:46;;;;;;;9.65;7.43;;;;;;;16.70;86.97;100850.78;10455253;28;20049;-62
2021/07/26 04:31:49;;;;;;;10.70;7.43;;;;;;;16.57;87.43;100848.31;10456659;28;20045;-61
2021/07/26 04:36:51;;;;;;;6.88;6.18;;;;;;;16.79;87.08;100851.81;10454964;28;20053;-61
2021/07/26 04:41:53;;;;;;;11.02;8.98;;;;;;;16.70;87.53;100842.84;10456459;28;20044;-62
2021/07/26 04:46:55;;;;;;;10.50;7.18;;;;;;;16.97;87.09;100847.69;10459215;28;20044;-62
2021/07/26 04:51:58;;;;;;;13.27;8.55;;;;;;;16.87;87.55;100847.59;10464176;28;20408;-62
2021/07/26 04:57:00;;;;;;;11.43;8.50;;;;;;;16.90;87.21;100855.28;10464073;28;20048;-61
2021/07/26 05:02:03;;;;;;;17.88;8.98;;;;;;;16.78;86.93;100853.63;10464337;28;20052;-62
2021/07/26 05:07:05;;;;;;;10.55;7.82;;;;;;;16.94;86.49;100855.03;10462474;28;20052;-61
2021/07/26 05:12:12;;;;;;;11.45;8.05;;;;;;;17.04;87.04;100864.69;10463463;28;20420;-62
2021/07/26 05:17:23;;;;;;;9.05;7.85;;;;;;;16.89;87.44;100861.56;10463696;28;20049;-62
2021/07/26 05:22:25;;;;;;;8.80;7.37;;;;;;;17.05;86.82;100854.97;10464066;28;20057;-62
2021/07/26 05:27:28;;;;;;;11.18;7.50;;;;;;;17.02;87.00;100856.06;10462920;28;20507;-61
2021/07/26 05:32:31;;;;;;;8.70;6.80;;;;;;;17.05;86.69;100854.97;10462618;28;20053;-61
2021/07/26 05:37:33;;;;;;;11.77;8.15;;;;;;;16.77;87.10;100857.22;10461954;28;20061;-62
2021/07/26 05:42:36;;;;;;;10.35;8.68;;;;;;;17.12;86.38;100857.97;10462499;28;20049;-62
2021/07/26 05:47:38;;;;;;;11.50;8.82;;;;;;;17.18;85.98;100857.41;10462089;28;20095;-61
2021/07/26 05:52:40;;;;;;;13.30;8.18;;;;;;;17.12;86.55;100850.84;10462217;28;20128;-61
2021/07/26 05:57:45;;;;;;;9.70;7.03;;;;;;;17.26;87.06;100842.59;10460863;28;20053;-61
2021/07/26 06:02:48;;;;;;;7.72;6.93;;;;;;;17.48;85.82;100847.84;10460435;28;20405;-61
2021/07/26 06:07:50;;;;;;;8.35;7.47;;;;;;;17.46;85.41;100845.31;10461418;28;20063;-62
2021/07/26 06:12:53;;;;;;;14.18;8.20;;;;;;;17.62;85.08;100845.69;10459986;28;20497;-61
2021/07/26 06:17:56;;;;;;;11.73;8.25;;;;;;;17.55;85.48;100836.63;10461074;28;20053;-62
2021/07/26 06:22:58;;;;;;;12.13;8.18;;;;;;;17.58;85.92;100844.25;10461173;28;20049;-61
2021/07/26 06:28:00;;;;;;;10.63;8.00;;;;;;;17.75;86.02;100850.78;10460528;28;20056;-61
2021/07/26 06:33:06;;;;;;;8.88;7.43;;;;;;;17.73;84.62;100854.50;10459181;28;20053;-61
2021/07/26 06:38:09;;;;;;;10.30;8.18;;;;;;;17.80;85.42;100853.84;10460498;28;20060;-61
2021/07/26 06:43:11;;;;;;;9.90;7.32;;;;;;;17.97;85.34;100859.50;10460248;28;20056;-61
2021/07/26 06:48:13;;;;;;;10.13;9.10;;;;;;;18.14;84.61;100866.81;10459497;28;20515;-63
2021/07/26 06:53:16;;;;;;;9.30;7.25;;;;;;;18.36;82.04;100867.56;10458606;28;20041;-61
2021/07/26 06:58:18;;;;;;;11.70;9.82;;;;;;;18.10;83.89;100862.75;10459534;28;20048;-61
2021/07/26 07:03:20;;;;;;;13.90;9.60;;;;;;;18.11;84.13;100871.56;10458082;28;20055;-62
2021/07/26 07:08:24;;;;;;;12.43;10.07;;;;;;;18.39;84.35;100861.97;10458920;28;20048;-61
2021/07/26 07:13:26;;;;;;;13.80;10.52;;;;;;;18.83;82.41;100878.38;10459059;28;20051;-62
2021/07/26 07:18:29;;;;;;;11.40;9.23;;;;;;;18.80;81.32;100869.81;10457399;28;20049;-62
2021/07/26 07:23:31;;;;;;;11.98;10.18;;;;;;;19.25;80.65;100872.75;10457185;28;20045;-61
2021/07/26 07:28:34;;;;;;;13.65;10.70;;;;;;;19.13;80.04;100884.47;10456952;28;20045;-62
2021/07/26 07:33:36;;;;;;;10.70;9.60;;;;;;;19.78;78.06;100884.63;10458328;28;20053;-62
2021/07/26 07:38:38;;;;;;;15.25;10.77;;;;;;;19.70;77.77;100884.47;10457746;28;20128;-62
2021/07/26 07:43:41;;;;;;;11.13;8.88;;;;;;;20.66;75.54;100875.31;10456640;28;20051;-62
2021/07/26 07:48:43;;;;;;;10.75;8.55;;;;;;;20.64;78.41;100879.97;10457584;28;20040;-62
2021/07/26 07:53:47;;;;;;;10.77;9.25;;;;;;;20.57;77.50;100887.69;10457379;28;20045;-65
2021/07/26 07:58:54;;;;;;;10.60;8.52;;;;;;;20.39;77.74;100890.31;10457714;28;20053;-62
2021/07/26 08:03:57;;;;;;;9.63;6.85;;;;;;;20.71;76.71;100884.53;10456144;28;20052;-63
2021/07/26 08:08:59;;;;;;;8.77;7.30;;;;;;;20.84;74.67;100886.78;10456895;28;20059;-63
2021/07/26 08:14:02;;;;;;;6.22;5.57;;;;;;;20.59;72.87;100886.56;10456573;28;20045;-62
2021/07/26 08:19:04;;;;;;;7.55;5.70;;;;;;;20.57;73.57;100888.50;10456334;28;20405;-62
2021/07/26 08:24:07;;;;;;;5.03;4.53;;;;;;;20.99;73.34;100886.28;10456524;28;20056;-61
2021/07/26 08:29:09;;;;;;;6.43;5.88;;;;;;;21.24;72.64;100892.63;10455177;28;20448;-62
2021/07/26 08:34:11;;;;;;;4.10;3.70;;;;;;;21.44;69.48;100894.06;10456130;28;20521;-62
2021/07/26 08:39:14;;;;;;;4.68;3.88;;;;;;;21.39;71.06;100907.03;10456463;28;20070;-62
2021/07/26 08:44:16;;;;;;;6.22;4.03;;;;;;;22.14;70.35;100906.47;10455108;28;20071;-63
2021/07/26 08:49:19;;;;;;;3.72;3.42;;;;;;;22.83;65.96;100900.97;10456028;28;20049;-64
2021/07/26 08:54:22;;;;;;;4.57;4.18;;;;;;;22.08;66.89;100902.59;10455002;28;20053;-62
2021/07/26 08:59:27;;;;;;;4.32;3.25;;;;;;;24.19;63.13;100899.38;10454721;28;20441;-63
2021/07/26 09:04:30;;;;;;;10.15;2.75;;;;;;;24.67;60.47;100903.63;10456097;28;20057;-62
2021/07/26 09:09:46;;;;;;;3.08;2.70;;;;;;;24.35;59.66;100906.50;10455472;28;20554;-62
2021/07/26 09:14:49;;;;;;;5.32;3.17;;;;;;;23.92;60.02;100912.19;10455498;28;20059;-63
2021/07/26 09:20:01;;;;;;;3.10;2.90;;;;;;;23.51;61.45;100915.78;10455239;28;20041;-62
2021/07/26 09:25:22;;;;;;;3.58;3.28;;;;;;;22.40;64.25;100901.06;10455841;28;20053;-60
2021/07/26 09:30:25;;;;;;;;;;;;;;;22.94;66.78;100905.97;10456160;28;20404;-62
2021/07/26 09:35:28;;;;;;;4.45;4.05;;;;;;;23.09;64.11;100916.84;10461222;28;20011;-61
2021/07/26 09:40:32;;;;;;;4.63;4.20;;;;;;;24.39;61.04;100903.28;10462417;28;20409;-62
2021/07/26 09:45:35;;;;;;;5.75;4.25;;;;;;;23.93;59.83;100900.50;10461715;28;20057;-62
2021/07/26 09:50:38;;;;;;;4.55;3.08;;;;;;;24.50;60.44;100906.59;10460800;28;20581;-61
2021/07/26 09:55:42;;;;;;;4.35;3.75;;;;;;;23.77;60.91;100908.56;10461724;28;20052;-63
2021/07/26 10:00:45;;;;;;;4.68;3.97;;;;;;;24.74;58.59;100892.22;10461706;28;20048;-62
2021/07/26 10:05:47;;;;;;;3.90;3.17;;;;;;;25.77;57.21;100901.47;10461604;28;20056;-62
2021/07/26 10:10:50;;;;;;;3.40;3.10;;;;;;;24.47;60.88;100907.75;10461724;28;20091;-62
2021/07/26 10:15:53;;;;;;;5.88;3.80;;;;;;;23.66;61.60;100917.78;10459981;28;20075;-62
2021/07/26 10:21:04;;;;;;;3.55;3.25;;;;;;;24.96;57.20;100909.28;10460909;28;20055;-62
2021/07/26 10:26:10;;;;;;;3.53;2.80;;;;;;;24.02;58.87;100910.16;10461016;28;20063;-61
2021/07/26 10:31:30;;;;;;;3.72;2.97;;;;;;;23.46;60.40;100920.81;10459615;28;20045;-63
2021/07/26 10:36:42;;;;;;;2.50;2.40;;;;;;;23.35;63.58;100922.00;10459920;28;20056;-61
2021/07/26 10:41:47;;;;;;;6.40;2.85;;;;;;;23.98;59.55;100924.88;10460485;28;20051;-61
2021/07/26 10:51:58;;;;;;;2.75;1.98;;;;;;;23.00;61.87;100924.00;10459644;28;20049;-63
2021/07/26 10:57:01;;;;;;;2.80;2.10;;;;;;;23.39;60.91;100929.69;10459181;28;20052;-62
2021/07/26 11:02:03;;;;;;;2.53;1.83;;;;;;;23.12;62.41;100923.69;10459200;28;20405;-61
2021/07/26 11:07:11;;;;;;;3.00;2.00;;;;;;;23.22;58.80;100918.16;10459155;28;20122;-62
2021/07/26 11:12:13;;;;;;;3.47;2.00;;;;;;;22.78;60.63;100927.31;10459072;28;20053;-61
2021/07/26 11:17:16;;;;;;;2.53;2.33;;;;;;;23.17;59.92;100916.84;10458510;28;20405;-63
2021/07/26 11:22:21;;;;;;;3.72;2.22;;;;;;;23.32;61.56;100922.34;10458726;28;20052;-60
2021/07/26 11:27:31;;;;;;;2.85;1.75;;;;;;;23.51;62.82;100923.00;10459465;28;20055;-62
2021/07/26 11:32:33;;;;;;;4.25;2.50;;;;;;;23.86;59.48;100913.72;10458263;28;20040;-62
2021/07/26 11:37:39;;;;;;;2.38;2.17;;;;;;;23.69;59.73;100915.59;10457588;28;20493;-63
2021/07/26 11:42:45;;;;;;;2.78;2.15;;;;;;;23.17;58.17;100911.50;10458776;28;20041;-62
2021/07/26 11:47:55;;;;;;;2.13;1.90;;;;;;;24.64;55.09;100905.84;10457476;28;20127;-63
2021/07/26 11:52:58;;;;;;;2.67;1.98;;;;;;;24.08;55.55;100908.63;10456341;28;20417;-63
2021/07/26 11:58:07;;;;;;;2.78;2.40;;;;;;;24.00;56.48;100903.31;10456296;28;20057;-64
2021/07/26 12:03:10;;;;;;;4.13;2.55;;;;;;;26.79;52.23;100889.88;10457700;28;20128;-64
2021/07/26 12:08:14;;;;;;;3.55;2.33;;;;;;;25.61;52.71;100897.13;10457043;28;20061;-63
2021/07/26 12:13:18;;;;;;;2.40;2.22;;;;;;;27.27;52.17;100899.16;10456730;28;20405;-64
2021/07/26 12:18:31;;;;;;;1.90;1.70;;;;;;;27.83;49.10;100888.34;10455693;28;20135;-63
2021/07/26 12:23:36;;;;;;;2.05;1.80;;;;;;;26.70;49.16;100893.75;10456756;28;20056;-62
2021/07/26 12:28:50;;;;;;;1.85;1.75;;;;;;;26.46;51.75;100902.94;10456671;28;20060;-64
2021/07/26 12:34:12;;;;;;;2.83;2.55;;;;;;;25.67;53.10;100891.06;10456525;28;20110;-62
2021/07/26 12:39:15;;;;;;;3.80;2.60;;;;;;;25.45;51.79;100891.94;10455873;28;20060;-64
2021/07/26 12:44:27;;;;;;;3.15;1.65;;;;;;;25.63;54.46;100889.75;10454982;28;20409;-62
2021/07/26 12:49:29;;;;;;;3.42;2.20;;;;;;;24.65;53.76;100884.25;10456070;28;20508;-63
2021/07/26 12:54:44;;;;;;;4.85;2.47;;;;;;;24.04;56.26;100888.59;10456470;28;20049;-63
2021/07/26 12:59:46;;;;;;;2.20;2.00;;;;;;;24.56;56.84;100881.81;10455892;28;20072;-62
2021/07/26 13:04:49;;;;;;;2.67;2.30;;;;;;;24.56;57.45;100873.78;10455808;28;20110;-63
2021/07/26 13:09:51;;;;;;;2.92;2.10;;;;;;;26.08;53.54;100868.28;10462865;28;20540;-62
2021/07/26 13:14:54;;;;;;;2.42;2.13;;;;;;;25.85;51.60;100879.09;10463568;28;20045;-62
2021/07/26 13:19:56;;;;;;;1.90;1.77;;;;;;;26.46;49.90;100860.00;10463485;28;20048;-63
2021/07/26 13:24:58;;;;;;;1.90;1.70;;;;;;;27.86;47.81;100874.50;10463031;28;20055;-64
2021/07/26 13:30:02;;;;;;;2.50;2.20;;;;;;;25.96;49.92;100865.25;10462877;28;20116;-62
2021/07/26 13:35:04;;;;;;;7.05;1.95;;;;;;;25.79;53.56;100875.31;10462393;28;20409;-62
2021/07/26 13:40:09;;;;;;;2.65;2.28;;;;;;;26.19;50.90;100877.69;10462696;28;20059;-62
2021/07/26 13:45:12;;;;;;;2.92;2.20;;;;;;;27.12;47.93;100875.91;10462490;28;20044;-63
2021/07/26 13:50:15;;;;;;;3.60;3.15;;;;;;;26.69;50.34;100874.09;10462261;28;20068;-62
2021/07/26 13:55:17;;;;;;;2.25;1.83;;;;;;;28.22;46.15;100856.44;10461862;28;20041;-62
2021/07/26 14:00:20;;;;;;;5.38;2.58;;;;;;;26.95;48.51;100861.09;10461313;28;20051;-62
2021/07/26 14:05:23;;;;;;;5.63;2.45;;;;;;;26.17;49.80;100863.63;10462008;28;20049;-61
2021/07/26 14:10:25;;;;;;;4.85;2.63;;;;;;;26.10;51.03;100855.50;10460265;28;20403;-62
2021/07/26 14:15:33;;;;;;;3.45;2.45;;;;;;;25.27;54.04;100865.50;10461346;28;20052;-62
2021/07/26 14:20:37;;;;;;;9.82;2.70;;;;;;;27.73;49.94;100851.06;10460242;28;20063;-60
2021/07/26 14:25:39;;;;;;;5.50;2.70;;;;;;;26.32;49.82;100849.13;10460845;28;20049;-62
2021/07/26 14:30:44;;;;;;;2.08;1.98;;;;;;;25.42;53.27;100855.66;10460300;28;20052;-61
2021/07/26 14:35:46;;;;;;;3.38;2.20;;;;;;;24.64;55.16;100868.38;10460546;28;20061;-61
2021/07/26 14:40:48;;;;;;;8.27;3.95;;;;;;;24.22;57.13;100865.09;10461395;28;20044;-61
2021/07/26 14:45:51;;;;;;;7.43;4.20;;;;;;;24.08;59.12;100866.69;10460016;28;20057;-61
2021/07/26 14:50:53;;;;;;;7.53;4.10;;;;;;;23.76;60.64;100872.16;10459861;28;20049;-61
2021/07/26 14:55:55;;;;;;;6.53;4.65;;;;;;;24.25;60.21;100866.59;10459588;28;20049;-61
2021/07/26 15:00:59;;;;;;;4.20;3.80;;;;;;;23.71;60.92;100875.34;10458231;28;20489;-60
2021/07/26 15:06:01;;;;;;;6.03;4.07;;;;;;;23.92;60.15;100878.28;10458133;28;20080;-58
2021/07/26 15:11:04;;;;;;;4.40;3.80;;;;;;;27.32;54.04;100877.91;10459432;28;20045;-60
2021/07/26 15:16:06;;;;;;;7.93;4.72;;;;;;;26.05;54.91;100876.69;10458804;28;20489;-59
2021/07/26 15:21:09;;;;;;;7.20;4.93;;;;;;;24.05;60.74;100875.03;10458616;28;20078;-61
2021/07/26 15:26:11;;;;;;;6.88;6.03;;;;;;;23.51;63.39;100890.94;10458440;28;20504;-58
2021/07/26 15:31:13;;;;;;;8.57;5.60;;;;;;;23.00;65.67;100886.63;10457094;28;20079;-61
2021/07/26 15:36:17;;;;;;;12.80;6.90;;;;;;;22.59;71.16;100885.75;10456296;28;20079;-60
2021/07/26 15:41:19;;;;;;;20.83;9.95;;;;;;;22.74;73.09;100868.09;10456658;28;20520;-61
2021/07/26 15:46:22;;;;;;;40.67;14.00;;;;;;;20.26;83.29;100898.66;10457924;28;20406;-63
2021/07/26 15:51:24;;;;;;;21.77;11.10;;;;;;;20.27;82.26;100910.97;10457386;28;20073;-61
2021/07/26 15:56:27;;;;;;;13.80;8.90;;;;;;;20.37;81.18;100925.03;10457503;28;20041;-60
2021/07/26 16:01:29;;;;;;;8.65;5.75;;;;;;;20.91;77.78;100919.81;10456327;28;20049;-60
2021/07/26 16:06:38;;;;;;;5.75;5.13;;;;;;;22.29;75.24;100913.84;10457361;28;20055;-61
2021/07/26 16:11:41;;;;;;;5.10;2.88;;;;;;;20.97;75.55;100918.34;10456941;28;20477;-61
2021/07/26 16:16:43;;;;;;;3.55;2.92;;;;;;;21.28;74.38;100915.25;10455681;28;20045;-61
2021/07/26 16:21:45;;;;;;;3.10;2.67;;;;;;;21.78;73.20;100919.94;10456697;28;20611;-61
2021/07/26 16:26:48;;;;;;;3.20;2.63;;;;;;;21.78;73.64;100927.13;10455433;28;20051;-63
2021/07/26 16:31:50;;;;;;;2.75;2.45;;;;;;;22.00;71.21;100909.72;10456789;28;20056;-61
2021/07/26 16:36:52;;;;;;;4.10;2.35;;;;;;;22.30;74.10;100913.69;10456637;28;20053;-63
2021/07/26 16:41:55;;;;;;;5.03;3.15;;;;;;;22.29;72.26;100908.53;10459518;28;20045;-62
2021/07/26 16:46:59;;;;;;;3.75;2.78;;;;;;;22.41;67.54;100891.25;10465002;28;20049;-59
2021/07/26 16:52:02;;;;;;;3.42;3.13;;;;;;;21.95;71.03;100898.72;10464342;28;20053;-60
2021/07/26 16:57:05;;;;;;;4.53;3.30;;;;;;;22.67;73.04;100890.28;10464311;28;20048;-59
2021/07/26 17:02:08;;;;;;;4.60;3.05;;;;;;;22.82;68.83;100894.78;10464122;28;20507;-59
2021/07/26 17:07:10;;;;;;;4.07;2.75;;;;;;;23.27;66.07;100897.16;10463057;28;20068;-59
2021/07/26 17:12:13;;;;;;;5.57;3.13;;;;;;;22.77;67.86;100896.28;10463847;28;20056;-60
2021/07/26 17:17:16;;;;;;;4.35;3.28;;;;;;;22.37;70.47;100897.88;10463191;28;20485;-62
2021/07/26 17:22:20;;;;;;;3.45;2.80;;;;;;;22.65;66.25;100897.63;10463697;28;20048;-60
2021/07/26 17:27:23;;;;;;;3.58;3.25;;;;;;;21.98;71.95;100891.22;10463360;28;20076;-60
2021/07/26 17:32:25;;;;;;;4.57;3.40;;;;;;;22.19;67.52;100895.28;10462988;28;20052;-60
2021/07/26 17:37:29;;;;;;;5.55;3.53;;;;;;;21.44;72.07;100901.25;10462669;28;20045;-59
2021/07/26 17:42:31;;;;;;;9.75;4.22;;;;;;;22.53;67.16;100897.94;10462726;28;20520;-61
2021/07/26 17:47:34;;;;;;;6.78;6.18;;;;;;;22.07;67.83;100900.94;10462232;28;20049;-59
2021/07/26 17:52:37;;;;;;;6.07;5.50;;;;;;;21.26;73.91;100899.44;10461251;28;20067;-60
2021/07/26 17:57:40;;;;;;;9.07;7.97;;;;;;;20.50;76.59;100913.22;10460979;28;20052;-59
2021/07/26 18:02:42;;;;;;;6.72;6.18;;;;;;;20.76;76.15;100910.66;10461639;28;20049;-60
2021/07/26 18:07:49;;;;;;;6.80;6.20;;;;;;;21.24;72.82;100919.25;10461578;28;20420;-61
2021/07/26 18:12:51;;;;;;;11.70;10.05;;;;;;;20.10;76.23;100922.38;10461231;28;20400;-61
2021/07/26 18:18:07;;;;;;;11.05;9.30;;;;;;;19.99;78.03;100926.91;10461506;28;20053;-60
2021/07/26 18:23:09;;;;;;;10.57;9.48;;;;;;;20.18;77.15;100927.81;10461052;28;20099;-61
2021/07/26 18:28:11;;;;;;;12.55;10.57;;;;;;;19.78;79.35;100927.13;10460614;28;20059;-61
2021/07/26 18:33:14;;;;;;;11.35;10.10;;;;;;;19.25;82.09;100925.81;10460682;28;20056;-62
2021/07/26 18:38:16;;;;;;;11.05;9.70;;;;;;;19.26;82.11;100929.31;10459958;28;20045;-62
2021/07/26 18:43:18;;;;;;;10.82;9.68;;;;;;;19.09;83.14;100938.81;10460656;28;20045;-62
2021/07/26 18:48:24;;;;;;;16.60;10.85;;;;;;;18.81;83.80;100937.78;10458905;28;20045;-61
2021/07/26 18:53:26;;;;;;;11.82;10.63;;;;;;;18.89;83.87;100948.59;10460498;28;20051;-60
2021/07/26 18:58:29;;;;;;;16.60;11.25;;;;;;;18.91;83.43;100944.84;10459467;28;20049;-62
2021/07/26 19:03:32;;;;;;;15.90;12.77;;;;;;;18.93;83.78;100937.56;10459556;28;20041;-61
2021/07/26 19:08:35;;;;;;;13.85;12.10;;;;;;;18.95;83.55;100937.44;10457797;28;20491;-61
2021/07/26 19:13:37;;;;;;;16.05;13.18;;;;;;;19.08;84.61;100948.59;10459148;28;20053;-61
2021/07/26 19:18:40;;;;;;;19.42;14.65;;;;;;;19.07;84.12;100948.75;10458660;28;20108;-62
2021/07/26 19:23:42;;;;;;;17.83;14.45;;;;;;;18.92;83.75;100948.31;10458720;28;20048;-59
2021/07/26 19:28:44;;;;;;;18.00;14.88;;;;;;;18.80;83.26;100963.50;10457807;28;20520;-60
2021/07/26 19:33:47;;;;;;;18.92;15.73;;;;;;;19.01;82.02;100965.22;10457041;28;20056;-61
2021/07/26 19:38:49;;;;;;;16.45;14.65;;;;;;;18.88;84.40;100966.31;10458105;28;20049;-61
2021/07/26 19:43:51;;;;;;;18.45;15.50;;;;;;;18.77;84.75;100982.31;10458218;28;20129;-61
2021/07/26 19:48:55;;;;;;;17.52;13.20;;;;;;;18.87;84.55;100987.69;10457641;28;20052;-61
2021/07/26 19:53:57;;;;;;;22.88;18.90;;;;;;;18.53;86.15;100995.97;10457552;28;20481;-61
2021/07/26 19:59:03;;;;;;;24.02;18.13;;;;;;;18.47;86.08;101002.63;10457155;28;20049;-60
2021/07/26 20:04:05;;;;;;;22.17;17.92;;;;;;;18.57;85.45;101007.97;10457197;28;20067;-61
2021/07/26 20:09:08;;;;;;;20.48;17.15;;;;;;;18.45;85.73;101012.53;10456830;28;20049;-63
2021/07/26 20:14:10;;;;;;;22.05;18.00;;;;;;;18.42;86.32;101011.97;10457353;28;20045;-61
2021/07/26 20:19:12;;;;;;;24.67;17.65;;;;;;;18.56;85.64;101008.94;10456232;28;20049;-63
2021/07/26 20:24:15;;;;;;;25.02;17.77;;;;;;;18.46;86.36;101019.50;10456667;28;20041;-61
2021/07/26 20:29:17;;;;;;;24.95;18.13;;;;;;;18.48;85.10;101024.69;10455545;28;20053;-61
2021/07/26 20:34:20;;;;;;;22.70;17.67;;;;;;;18.38;85.01;101029.94;10456233;28;20060;-62
2021/07/26 20:39:22;;;;;;;21.42;16.10;;;;;;;18.50;85.24;101036.81;10455874;28;20079;-60
2021/07/26 20:44:24;;;;;;;34.38;21.58;;;;;;;18.20;86.23;101038.50;10454990;28;20056;-61
2021/07/26 20:49:27;;;;;;;22.23;15.02;;;;;;;18.51;84.74;101035.03;10455989;28;20382;-60
2021/07/26 20:54:29;;;;;;;22.45;16.50;;;;;;;18.63;82.81;101047.19;10455186;28;20045;-61
2021/07/26 20:59:31;;;;;;;20.65;18.48;;;;;;;18.51;82.81;101054.41;10454697;28;20421;-60
2021/07/26 21:04:34;;;;;;;25.20;18.83;;;;;;;18.36;83.08;101059.22;10455759;28;20405;-61
2021/07/26 21:09:36;;;;;;;22.45;18.23;;;;;;;18.42;84.31;101059.66;10455798;28;20053;-61
2021/07/26 21:14:40;;;;;;;20.00;15.95;;;;;;;18.48;84.48;101056.50;10455707;28;20045;-61
2021/07/26 21:19:42;;;;;;;23.25;18.23;;;;;;;18.46;84.24;101055.75;10455902;28;20136;-62
2021/07/26 21:24:44;;;;;;;20.08;16.55;;;;;;;18.62;83.40;101050.81;10454346;28;20049;-62
2021/07/26 21:29:47;;;;;;;21.50;16.65;;;;;;;18.62;82.97;101052.63;10460772;28;20085;-61
2021/07/26 21:34:49;;;;;;;30.00;23.25;;;;;;;18.14;85.17;101046.13;10462113;28;20061;-60
2021/07/26 21:39:52;;;;;;;24.38;18.58;;;;;;;18.53;83.58;101043.69;10461551;28;20224;-62
2021/07/26 21:44:54;;;;;;;25.60;21.23;;;;;;;18.36;83.15;101053.09;10462491;28;20076;-60
2021/07/26 21:49:56;;;;;;;19.58;16.08;;;;;;;18.62;82.32;101049.97;10462276;28;20400;-61
2021/07/26 21:55:00;;;;;;;29.20;22.52;;;;;;;18.43;84.10;101050.75;10462384;28;20052;-61
2021/07/26 22:00:05;;;;;;;36.15;23.63;;;;;;;18.67;83.08;101051.25;10461766;28;20049;-60
2021/07/26 22:05:07;;;;;;;22.30;18.42;;;;;;;18.51;83.42;101050.94;10461909;28;20056;-61
2021/07/26 22:10:10;;;;;;;22.00;17.25;;;;;;;18.59;82.38;101064.34;10460443;28;20059;-61
2021/07/26 22:15:13;;;;;;;28.13;23.10;;;;;;;18.50;83.09;101062.50;10461227;28;20512;-62
2021/07/26 22:20:16;;;;;;;26.20;17.92;;;;;;;18.51;82.94;101056.25;10460084;28;20127;-61
2021/07/26 22:25:18;;;;;;;30.20;19.77;;;;;;;18.47;83.39;101052.97;10461085;28;20049;-61
2021/07/26 22:30:21;;;;;;;42.33;25.73;;;;;;;18.35;84.11;101056.72;10460786;28;20049;-60
2021/07/26 22:35:23;;;;;;;41.75;26.80;;;;;;;18.39;83.81;101052.81;10460944;28;20488;-61
2021/07/26 22:40:26;;;;;;;29.10;20.27;;;;;;;18.41;83.09;101058.84;10458599;28;20049;-60
2021/07/26 22:45:28;;;;;;;38.53;25.13;;;;;;;18.18;84.93;101050.22;10460345;28;20106;-60
2021/07/26 22:50:31;;;;;;;38.25;25.13;;;;;;;18.08;85.23;101052.81;10460759;28;20056;-60
2021/07/26 22:55:33;;;;;;;32.92;22.33;;;;;;;18.14;84.26;101047.00;10459726;28;20477;-62
2021/07/26 23:00:36;;;;;;;35.55;24.15;;;;;;;18.25;84.33;101045.22;10459469;28;20099;-61
2021/07/26 23:05:38;;;;;;;43.00;25.58;;;;;;;17.95;85.66;101045.03;10458367;28;20052;-60
2021/07/26 23:10:42;;;;;;;43.35;28.45;;;;;;;17.93;85.73;101048.81;10459153;28;20057;-62